Time;durP1;ratioP1;P1;durP2;ratioP2;P2;SDS_P1;SDS_P2;PMS_P1;PMS_P2;Temp;Humidity;BMP_temperature;BMP_pressure;BME280_temperature;BME280_humidity;BME280_pressure;Samples;Min_cycle;Max_cycle;Signal;HPM_P1;HPM_P2
2021/06/11 00:00:42;;;;;;;13.40;12.00;;;;;;;16.59;100.00;96560.88;4980956;28;20488;-92
2021/06/11 00:03:10;;;;;;;15.50;13.80;;;;;;;16.54;100.00;96555.66;4981257;28;20939;-91
2021/06/11 00:05:36;;;;;;;16.43;13.10;;;;;;;16.45;100.00;96553.69;4983139;28;20485;-91
2021/06/11 00:08:03;;;;;;;14.47;13.03;;;;;;;16.42;100.00;96554.81;4981323;28;20452;-92
2021/06/11 00:10:30;;;;;;;14.07;12.67;;;;;;;16.45;100.00;96556.41;4981720;28;20434;-91
2021/06/11 00:12:56;;;;;;;15.17;12.43;;;;;;;16.43;100.00;96556.28;4981436;28;20448;-91
2021/06/11 00:15:23;;;;;;;17.53;13.73;;;;;;;16.42;100.00;96549.38;4980453;28;20505;-91
2021/06/11 00:17:52;;;;;;;16.33;12.53;;;;;;;16.46;100.00;96552.41;4980720;28;20426;-91
2021/06/11 00:20:21;;;;;;;20.10;13.27;;;;;;;16.40;100.00;96544.53;4980839;28;20477;-91
2021/06/11 00:22:47;;;;;;;14.70;13.03;;;;;;;16.31;100.00;96550.69;4980956;28;20541;-91
2021/06/11 00:25:16;;;;;;;17.93;13.33;;;;;;;16.28;100.00;96551.13;4981483;28;20477;-91
2021/06/11 00:27:42;;;;;;;14.40;12.57;;;;;;;16.32;100.00;96543.94;4980949;28;20454;-91
2021/06/11 00:30:10;;;;;;;14.37;12.33;;;;;;;16.31;100.00;96547.25;4979721;28;20464;-91
2021/06/11 00:32:37;;;;;;;12.80;11.50;;;;;;;16.37;100.00;96542.94;4980282;28;20494;-91
2021/06/11 00:35:04;;;;;;;14.77;12.10;;;;;;;16.36;100.00;96549.69;4980013;28;20493;-91
2021/06/11 00:37:32;;;;;;;13.63;12.10;;;;;;;16.40;100.00;96547.25;4981649;28;20437;-94
2021/06/11 00:39:58;;;;;;;16.50;13.80;;;;;;;16.35;100.00;96540.06;4981397;28;20438;-93
2021/06/11 00:42:24;;;;;;;14.27;12.80;;;;;;;16.34;100.00;96543.38;4982193;28;20942;-95
2021/06/11 00:44:51;;;;;;;15.17;13.50;;;;;;;16.31;100.00;96549.97;4980704;28;20540;-93
2021/06/11 00:47:17;;;;;;;15.37;13.37;;;;;;;16.26;100.00;96540.06;4981777;28;20540;-93
2021/06/11 00:49:44;;;;;;;14.93;12.70;;;;;;;16.25;100.00;96542.09;4979724;28;20922;-94
2021/06/11 00:52:10;;;;;;;17.73;14.87;;;;;;;16.23;100.00;96550.09;4981299;28;20442;-94
2021/06/11 00:54:38;;;;;;;17.40;14.50;;;;;;;16.26;100.00;96542.78;4981278;28;20572;-94
2021/06/11 00:57:05;;;;;;;15.00;13.20;;;;;;;16.27;100.00;96544.22;4981317;28;20466;-94
2021/06/11 00:59:31;;;;;;;18.60;14.17;;;;;;;16.27;100.00;96544.94;4980758;28;20446;-94
2021/06/11 01:01:57;;;;;;;15.03;12.63;;;;;;;16.29;100.00;96547.81;4981167;28;20437;-94
2021/06/11 01:04:24;;;;;;;14.03;11.97;;;;;;;16.32;100.00;96548.69;4981643;28;20521;-94
2021/06/11 01:06:50;;;;;;;15.47;13.30;;;;;;;16.32;100.00;96551.41;4979023;28;20494;-93
2021/06/11 01:09:17;;;;;;;14.70;13.20;;;;;;;16.29;100.00;96550.53;4980067;28;21029;-94
2021/06/11 01:11:46;;;;;;;16.20;12.87;;;;;;;16.27;100.00;96553.13;4981029;28;20533;-94
2021/06/11 01:14:13;;;;;;;14.97;12.37;;;;;;;16.27;100.00;96555.13;4980560;28;20488;-94
2021/06/11 01:16:40;;;;;;;13.33;11.70;;;;;;;16.24;100.00;96551.53;4980334;28;20474;-94
2021/06/11 01:19:09;;;;;;;16.37;14.03;;;;;;;16.18;100.00;96550.41;4980925;28;20517;-94
2021/06/11 01:21:42;;;;;;;19.33;14.13;;;;;;;16.15;100.00;96546.09;4980246;28;20518;-94
2021/06/11 01:24:14;;;;;;;14.53;12.60;;;;;;;16.11;100.00;96548.53;4980916;28;21010;-94
2021/06/11 01:26:43;;;;;;;17.50;12.70;;;;;;;16.07;100.00;96549.66;4980993;28;20470;-93
2021/06/11 01:29:12;;;;;;;13.73;12.33;;;;;;;16.01;100.00;96543.78;4981072;28;20462;-92
2021/06/11 01:31:41;;;;;;;17.07;13.20;;;;;;;15.96;100.00;96539.34;4979311;28;20454;-93
2021/06/11 01:34:13;;;;;;;15.73;14.13;;;;;;;15.92;100.00;96541.06;4981700;28;21070;-91
2021/06/11 01:36:43;;;;;;;15.60;13.47;;;;;;;15.91;100.00;96543.06;4988131;28;20518;-92
2021/06/11 01:39:11;;;;;;;18.27;14.83;;;;;;;15.95;100.00;96548.09;4999545;28;20477;-92
2021/06/11 01:41:39;;;;;;;16.70;14.47;;;;;;;15.88;100.00;96538.75;4982988;28;20866;-91
2021/06/11 01:44:09;;;;;;;16.83;13.70;;;;;;;15.83;100.00;96539.03;4978566;28;20513;-91
2021/06/11 01:46:38;;;;;;;17.37;14.10;;;;;;;15.80;100.00;96543.63;4978991;28;20466;-91
2021/06/11 01:49:04;;;;;;;14.60;12.90;;;;;;;15.83;100.00;96542.50;4979390;28;20533;-91
2021/06/11 01:51:32;;;;;;;17.83;13.77;;;;;;;15.83;100.00;96542.50;4981820;28;20449;-91
2021/06/11 01:54:00;;;;;;;15.57;13.87;;;;;;;15.83;100.00;96536.31;4979510;28;20526;-91
2021/06/11 01:56:27;;;;;;;16.20;14.50;;;;;;;15.84;100.00;96541.22;4980167;28;20495;-91
2021/06/11 01:58:55;;;;;;;17.80;13.97;;;;;;;15.81;100.00;96542.34;4979637;28;20517;-91
2021/06/11 02:01:23;;;;;;;21.20;14.50;;;;;;;15.77;100.00;96539.34;4978927;28;20454;-91
2021/06/11 02:03:51;;;;;;;15.43;13.40;;;;;;;15.85;100.00;96547.38;4978227;28;20521;-91
2021/06/11 02:06:20;;;;;;;16.73;14.17;;;;;;;15.84;100.00;96538.50;4978781;28;20452;-91
2021/06/11 02:08:49;;;;;;;14.57;12.87;;;;;;;15.90;100.00;96538.19;4980016;28;20766;-94
2021/06/11 02:11:15;;;;;;;14.57;12.90;;;;;;;15.90;100.00;96540.94;4980971;28;20476;-94
2021/06/11 02:13:43;;;;;;;17.33;14.97;;;;;;;15.87;100.00;96542.06;4978999;28;20591;-94
2021/06/11 02:16:10;;;;;;;18.40;14.40;;;;;;;15.79;100.00;96539.47;4979382;28;20466;-93
2021/06/11 02:18:38;;;;;;;16.57;14.87;;;;;;;15.78;100.00;96540.06;4978959;28;20448;-94
2021/06/11 02:21:06;;;;;;;17.73;15.80;;;;;;;15.73;100.00;96543.75;4979295;28;20450;-94
2021/06/11 02:23:34;;;;;;;18.90;15.30;;;;;;;15.76;100.00;96543.34;4978596;28;20510;-94
2021/06/11 02:26:01;;;;;;;19.27;14.93;;;;;;;15.77;100.00;96550.22;4991478;28;20500;-91
2021/06/11 02:28:27;;;;;;;16.87;14.53;;;;;;;15.75;100.00;96538.47;4999353;28;20461;-91
2021/06/11 02:30:53;;;;;;;20.20;15.40;;;;;;;15.77;100.00;96549.50;4999020;28;20446;-90
2021/06/11 02:33:19;;;;;;;17.63;14.47;;;;;;;15.76;100.00;96545.34;4999116;28;20441;-90
2021/06/11 02:35:47;;;;;;;18.90;15.73;;;;;;;15.67;100.00;96546.03;4998713;28;20469;-91
2021/06/11 02:38:13;;;;;;;17.17;14.30;;;;;;;15.58;100.00;96544.72;4999242;28;20442;-90
2021/06/11 02:40:39;;;;;;;15.80;13.77;;;;;;;15.49;100.00;96540.72;4998931;28;20434;-92
2021/06/11 02:43:09;;;;;;;16.57;14.73;;;;;;;15.46;100.00;96535.66;4998824;28;20426;-92
2021/06/11 02:45:40;;;;;;;16.27;14.23;;;;;;;15.41;100.00;96536.66;4992901;28;20553;-93
2021/06/11 02:48:26;;;;;;;18.67;14.97;;;;;;;15.44;100.00;96540.97;4980888;28;20948;-93
2021/06/11 02:50:59;;;;;;;19.10;15.43;;;;;;;15.41;100.00;96542.09;4980252;28;20498;-93
2021/06/11 02:53:28;;;;;;;19.10;16.47;;;;;;;15.41;100.00;96542.78;4979541;28;21002;-91
2021/06/11 02:55:58;;;;;;;20.10;13.77;;;;;;;15.42;100.00;96535.34;4979538;28;20578;-91
2021/06/11 02:58:33;;;;;;;19.63;15.40;;;;;;;15.50;100.00;96536.72;4985730;28;20514;-91
2021/06/11 03:01:02;;;;;;;19.83;14.70;;;;;;;15.48;100.00;96538.53;4998142;28;20426;-92
2021/06/11 03:03:29;;;;;;;18.83;15.47;;;;;;;15.35;100.00;96539.63;4998487;28;20428;-93
2021/06/11 03:06:00;;;;;;;17.87;14.17;;;;;;;15.29;100.00;96527.56;4998386;28;20477;-93
2021/06/11 03:08:29;;;;;;;18.83;15.70;;;;;;;15.27;100.00;96532.88;4993345;28;20924;-92
2021/06/11 03:10:59;;;;;;;16.93;15.07;;;;;;;15.27;100.00;96530.16;4982327;28;20446;-93
2021/06/11 03:13:27;;;;;;;19.03;16.07;;;;;;;15.25;100.00;96533.44;4981628;28;20458;-94
2021/06/11 03:15:54;;;;;;;20.13;17.30;;;;;;;15.28;100.00;96526.88;4985017;28;20565;-93
2021/06/11 03:18:27;;;;;;;17.43;15.23;;;;;;;15.32;100.00;96529.88;4986648;28;20460;-94
2021/06/11 03:20:55;;;;;;;26.83;17.37;;;;;;;15.34;100.00;96527.31;4982626;28;20413;-93
2021/06/11 03:23:28;;;;;;;21.60;16.90;;;;;;;15.34;100.00;96529.31;4982857;28;20454;-94
2021/06/11 03:25:58;;;;;;;29.13;19.07;;;;;;;15.34;100.00;96532.03;4982349;28;20465;-94
2021/06/11 03:28:30;;;;;;;28.60;17.17;;;;;;;15.28;100.00;96534.31;4983959;28;20844;-94
2021/06/11 03:30:59;;;;;;;22.43;19.00;;;;;;;15.33;100.00;96544.19;4985440;28;21038;-94
2021/06/11 03:33:30;;;;;;;23.97;17.43;;;;;;;15.36;100.00;96543.06;4986512;28;20430;-93
2021/06/11 03:36:00;;;;;;;26.33;18.03;;;;;;;15.36;100.00;96534.91;4986652;28;20544;-94
2021/06/11 03:38:31;;;;;;;25.27;17.50;;;;;;;15.44;100.00;96543.69;4987217;28;20440;-92
2021/06/11 03:40:58;;;;;;;25.00;17.50;;;;;;;15.49;100.00;96548.88;4986571;28;20780;-93
2021/06/11 03:43:28;;;;;;;23.23;16.83;;;;;;;15.52;100.00;96553.16;4986750;28;20524;-93
2021/06/11 03:45:55;;;;;;;23.17;16.20;;;;;;;15.66;100.00;96555.50;4986042;28;20478;-93
2021/06/11 03:48:24;;;;;;;18.77;15.50;;;;;;;15.81;100.00;96555.97;4986267;28;20477;-93
2021/06/11 03:50:52;;;;;;;18.87;15.47;;;;;;;15.95;100.00;96558.97;4986329;28;20456;-91
2021/06/11 03:53:22;;;;;;;19.93;15.83;;;;;;;16.00;100.00;96549.81;4983813;28;20585;-90
2021/06/11 03:55:54;;;;;;;20.37;16.50;;;;;;;16.19;100.00;96549.13;4983954;28;20454;-90
2021/06/11 03:58:25;;;;;;;19.27;15.33;;;;;;;16.33;99.56;96553.53;4985730;28;20464;-90
2021/06/11 04:00:51;;;;;;;22.20;15.70;;;;;;;16.33;98.58;96550.81;4985748;28;20579;-91
2021/06/11 04:03:17;;;;;;;20.97;17.40;;;;;;;16.35;98.62;96550.97;4985433;28;20434;-90
2021/06/11 04:05:44;;;;;;;15.93;13.93;;;;;;;16.31;98.33;96553.41;4984525;28;20541;-90
2021/06/11 04:08:17;;;;;;;15.20;13.30;;;;;;;16.24;98.61;96553.53;4983532;28;20465;-90
2021/06/11 04:10:50;;;;;;;19.30;16.43;;;;;;;16.28;98.54;96551.84;4985449;28;20527;-91
2021/06/11 04:13:23;;;;;;;17.97;14.50;;;;;;;16.44;98.76;96552.25;4985620;28;20507;-91
2021/06/11 04:15:53;;;;;;;16.03;14.17;;;;;;;16.67;97.37;96551.81;4986300;28;20449;-90
2021/06/11 04:18:24;;;;;;;21.30;16.87;;;;;;;16.73;96.62;96558.41;4986611;28;20473;-91
2021/06/11 04:20:53;;;;;;;28.13;15.07;;;;;;;16.75;96.09;96564.00;4984156;28;20450;-91
2021/06/11 04:23:23;;;;;;;20.27;14.47;;;;;;;16.96;96.10;96569.53;4983643;28;20881;-92
2021/06/11 04:25:53;;;;;;;17.90;14.10;;;;;;;17.31;94.24;96567.13;4984637;28;20505;-91
2021/06/11 04:28:23;;;;;;;18.23;15.50;;;;;;;17.54;92.81;96561.84;4986390;28;20439;-91
2021/06/11 04:30:52;;;;;;;19.43;15.40;;;;;;;17.89;90.75;96564.84;4986387;28;20492;-90
2021/06/11 04:33:23;;;;;;;13.93;12.53;;;;;;;18.35;89.54;96571.88;4986089;28;20455;-91
2021/06/11 04:35:51;;;;;;;12.90;11.60;;;;;;;18.82;86.39;96567.31;4985699;28;20509;-91
2021/06/11 04:38:17;;;;;;;16.93;13.87;;;;;;;18.96;85.06;96566.13;4984334;28;20449;-93
2021/06/11 04:40:43;;;;;;;14.70;12.77;;;;;;;19.22;83.45;96572.47;4984607;28;20522;-92
2021/06/11 04:43:10;;;;;;;13.90;12.20;;;;;;;19.55;81.95;96577.88;4985638;28;20450;-93
2021/06/11 04:45:38;;;;;;;13.67;12.27;;;;;;;19.79;80.17;96582.03;4987815;28;20549;-94
2021/06/11 04:48:05;;;;;;;13.83;12.17;;;;;;;19.91;79.09;96579.28;4987244;28;20477;-94
2021/06/11 04:50:31;;;;;;;15.60;11.10;;;;;;;19.91;78.74;96582.72;4987166;28;20429;-93
2021/06/11 04:52:57;;;;;;;12.50;10.47;;;;;;;20.11;77.51;96583.19;4994130;28;20438;-91
2021/06/11 04:55:24;;;;;;;12.40;10.43;;;;;;;20.14;77.76;96584.72;5000727;28;20516;-91
2021/06/11 04:57:51;;;;;;;12.70;11.50;;;;;;;20.44;76.10;96580.22;5000324;28;20450;-90
2021/06/11 05:00:18;;;;;;;12.37;11.07;;;;;;;20.53;75.43;96584.84;4992356;28;20497;-93
2021/06/11 05:02:46;;;;;;;15.00;11.37;;;;;;;20.49;75.85;96587.34;4984797;28;20460;-93
2021/06/11 05:05:12;;;;;;;11.87;10.67;;;;;;;20.65;74.87;96588.25;4984100;28;20532;-93
2021/06/11 05:07:38;;;;;;;13.40;10.50;;;;;;;20.79;74.53;96591.78;4984251;28;20609;-93
2021/06/11 05:10:05;;;;;;;15.00;10.30;;;;;;;21.02;73.40;96597.13;4984360;28;20426;-93
2021/06/11 05:12:32;;;;;;;11.73;10.00;;;;;;;21.29;72.25;96602.00;4985150;28;20470;-92
2021/06/11 05:14:58;;;;;;;11.17;10.10;;;;;;;21.28;72.08;96595.78;4983841;28;20485;-93
2021/06/11 05:17:24;;;;;;;11.83;10.60;;;;;;;21.26;71.63;96603.94;4989990;28;20469;-93
2021/06/11 05:19:51;;;;;;;12.23;11.03;;;;;;;21.34;71.90;96600.88;4999734;28;20437;-92
2021/06/11 05:22:19;;;;;;;11.90;9.97;;;;;;;21.56;71.60;96604.06;4999739;28;20455;-91
2021/06/11 05:24:45;;;;;;;11.17;9.70;;;;;;;21.81;70.14;96610.19;4999505;28;20474;-93
2021/06/11 05:27:11;;;;;;;10.50;9.40;;;;;;;21.93;69.52;96612.84;4990501;28;20823;-93
2021/06/11 05:29:37;;;;;;;10.20;9.13;;;;;;;22.06;69.02;96614.16;4985396;28;20525;-93
2021/06/11 05:32:04;;;;;;;14.27;10.23;;;;;;;22.26;68.49;96607.66;4986984;28;20490;-93
2021/06/11 05:34:30;;;;;;;12.00;10.03;;;;;;;22.62;67.04;96605.19;4985081;28;20489;-94
2021/06/11 05:36:57;;;;;;;10.57;9.57;;;;;;;22.72;66.54;96617.44;4984812;28;20473;-94
2021/06/11 05:39:26;;;;;;;16.47;11.03;;;;;;;22.74;66.39;96622.34;4985938;28;20465;-90
2021/06/11 05:41:58;;;;;;;13.43;10.50;;;;;;;22.54;66.92;96615.81;4985561;28;20421;-93
2021/06/11 05:44:24;;;;;;;11.70;10.50;;;;;;;22.83;66.37;96618.63;4988757;28;20443;-93
2021/06/11 05:46:51;;;;;;;10.33;9.33;;;;;;;23.15;65.32;96611.84;4986780;28;20511;-93
2021/06/11 05:49:24;;;;;;;11.30;9.93;;;;;;;23.63;64.09;96616.06;4987602;28;20434;-93
2021/06/11 05:51:52;;;;;;;11.50;10.50;;;;;;;24.03;62.68;96621.91;4989131;28;20461;-92
2021/06/11 05:54:21;;;;;;;15.47;11.43;;;;;;;24.15;61.42;96628.63;4986739;28;20485;-90
2021/06/11 05:56:48;;;;;;;10.10;9.00;;;;;;;24.52;60.30;96623.28;4986564;28;20477;-91
2021/06/11 05:59:18;;;;;;;11.63;10.47;;;;;;;24.66;60.69;96623.13;4986668;28;20442;-92
2021/06/11 06:01:58;;;;;;;;;;;;;;;;;;;;;
2021/06/11 06:08:04;;;;;;;10.30;9.33;;;;;;;24.38;61.61;96614.44;4888887;29;20538;-93
2021/06/11 06:10:59;;;;;;;11.83;10.30;;;;;;;24.43;61.91;96618.75;4851949;29;20472;-91
2021/06/11 06:13:42;;;;;;;;;;;;;;;;;;;;;
2021/06/11 06:19:11;;;;;;;10.43;9.00;;;;;;;25.31;59.51;96626.34;4886517;29;20564;-90
2021/06/11 06:21:51;;;;;;;9.80;8.80;;;;;;;25.33;60.22;96620.91;4921203;28;20901;-88
2021/06/11 06:24:23;;;;;;;12.43;9.37;;;;;;;25.63;59.39;96626.13;4983366;28;20426;-91
2021/06/11 06:26:53;;;;;;;10.67;8.60;;;;;;;25.58;59.50;96619.75;4983302;28;20466;-91
2021/06/11 06:29:33;;;;;;;9.47;8.50;;;;;;;25.46;60.21;96622.06;4982010;28;20457;-91
2021/06/11 06:32:04;;;;;;;9.57;8.70;;;;;;;25.88;59.00;96629.13;4981531;28;20561;-88
2021/06/11 06:34:35;;;;;;;11.00;9.20;;;;;;;26.13;58.38;96630.66;4982650;28;20466;-88
2021/06/11 06:37:14;;;;;;;;;;;;;;;;;;;;;
2021/06/11 06:39:59;;;;;;;;;;;;;;;;;;;;;
2021/06/11 06:42:46;;;;;;;;;;;;;;;;;;;;;
2021/06/11 06:45:21;;;;;;;10.07;9.17;;;;;;;26.88;56.22;96635.91;4983287;28;20981;-90
2021/06/11 06:47:50;;;;;;;10.20;9.17;;;;;;;26.68;56.48;96640.78;4981871;28;20410;-91
2021/06/11 06:50:25;;;;;;;8.93;8.03;;;;;;;27.25;55.57;96643.28;4982522;28;20504;-91
2021/06/11 06:53:03;;;;;;;;;;;;;;;;;;;;;
2021/06/11 06:55:47;;;;;;;;;;;;;;;;;;;;;
2021/06/11 06:58:44;;;;;;;9.77;8.97;;;;;;;27.00;55.77;96637.00;4981285;28;20490;-90
2021/06/11 07:01:25;;;;;;;;;;;;;;;;;;;;;
2021/06/11 07:04:01;;;;;;;;;;;;;;;;;;;;;
2021/06/11 07:06:50;;;;;;;;;;;;;;;;;;;;;
2021/06/11 07:09:28;;;;;;;9.47;8.33;;;;;;;27.59;54.38;96639.47;4965055;28;20454;-91
2021/06/11 07:11:56;;;;;;;8.70;7.80;;;;;;;27.84;53.90;96642.91;4985748;28;20509;-93
2021/06/11 07:14:23;;;;;;;10.57;9.57;;;;;;;28.13;52.84;96647.91;4985116;28;20565;-91
2021/06/11 07:16:51;;;;;;;9.23;7.40;;;;;;;28.32;52.67;96644.22;4987434;28;20476;-91
2021/06/11 07:19:23;;;;;;;10.10;8.50;;;;;;;28.12;52.71;96647.19;4986454;28;20461;-91
2021/06/11 07:21:49;;;;;;;9.33;8.43;;;;;;;27.97;52.79;96650.94;4985032;28;20446;-90
2021/06/11 07:24:48;;;;;;;11.10;10.00;;;;;;;27.47;54.03;96644.66;4985104;28;20445;-90
2021/06/11 07:27:14;;;;;;;11.27;10.00;;;;;;;27.25;54.61;96643.28;4985916;28;20470;-91
2021/06/11 07:29:45;;;;;;;11.50;10.30;;;;;;;27.38;54.85;96653.38;4983876;28;20581;-89
2021/06/11 07:32:23;;;;;;;12.00;10.90;;;;;;;27.48;53.62;96648.84;4985451;28;20457;-89
2021/06/11 07:34:55;;;;;;;11.37;10.23;;;;;;;27.69;52.65;96649.44;4983050;28;20488;-92
2021/06/11 07:37:23;;;;;;;11.73;10.50;;;;;;;27.41;53.33;96644.44;4986188;28;20481;-91
2021/06/11 07:39:50;;;;;;;10.87;9.87;;;;;;;28.05;51.49;96653.22;4987613;28;20442;-92
2021/06/11 07:42:16;;;;;;;11.23;9.87;;;;;;;28.24;51.73;96660.66;4988852;28;20464;-91
2021/06/11 07:44:43;;;;;;;10.53;9.50;;;;;;;28.18;52.49;96654.97;4984590;28;20865;-88
2021/06/11 07:47:12;;;;;;;10.87;9.73;;;;;;;28.16;51.62;96657.69;4985525;28;20472;-92
2021/06/11 07:49:43;;;;;;;11.57;10.47;;;;;;;26.69;55.11;96653.28;4987610;28;20418;-89
2021/06/11 07:52:10;;;;;;;14.40;10.20;;;;;;;27.45;53.96;96661.25;4984362;28;20464;-91
2021/06/11 07:54:40;;;;;;;12.03;10.93;;;;;;;26.82;55.28;96655.81;4988399;28;20493;-91
2021/06/11 07:57:08;;;;;;;9.63;8.83;;;;;;;27.21;54.00;96651.47;4992186;28;20525;-93
2021/06/11 07:59:38;;;;;;;12.43;11.07;;;;;;;27.30;53.74;96648.28;4990302;28;20482;-91
2021/06/11 08:02:20;;;;;;;12.37;11.17;;;;;;;28.33;51.79;96650.47;4988500;28;20826;-91
2021/06/11 08:04:55;;;;;;;11.90;10.67;;;;;;;28.27;51.65;96650.31;4984696;28;20418;-91
2021/06/11 08:07:46;;;;;;;;;;;;;;;;;;;;;
2021/06/11 08:10:32;;;;;;;13.53;10.60;;;;;;;27.66;53.14;96641.03;4985124;28;20502;-92
2021/06/11 08:13:00;;;;;;;11.50;10.40;;;;;;;28.08;52.98;96638.03;5000932;28;20450;-91
2021/06/11 08:15:26;;;;;;;11.40;10.13;;;;;;;27.96;52.00;96641.19;4999869;28;20564;-91
2021/06/11 08:17:58;;;;;;;11.57;10.40;;;;;;;28.25;51.79;96647.50;5000127;28;20449;-90
2021/06/11 08:20:40;;;;;;;11.33;10.13;;;;;;;28.52;49.03;96650.28;4994449;28;20460;-92
2021/06/11 08:23:35;;;;;;;14.23;10.93;;;;;;;28.06;50.56;96654.66;4985262;28;20446;-90
2021/06/11 08:26:15;;;;;;;11.93;10.73;;;;;;;27.78;52.11;96649.00;4984138;28;20466;-91
2021/06/11 08:28:52;;;;;;;11.90;10.80;;;;;;;27.63;52.73;96647.19;4997390;28;20434;-91
2021/06/11 08:31:23;;;;;;;11.70;10.63;;;;;;;28.03;51.74;96648.31;4999704;28;20453;-90
2021/06/11 08:33:58;;;;;;;11.77;10.60;;;;;;;27.57;52.31;96649.78;4999751;28;20415;-90
2021/06/11 08:36:53;;;;;;;12.00;10.90;;;;;;;27.35;52.18;96651.88;4999318;28;20532;-91
2021/06/11 08:39:19;;;;;;;13.93;12.27;;;;;;;27.22;51.20;96653.59;4987826;28;20505;-92
2021/06/11 08:41:46;;;;;;;11.83;10.73;;;;;;;27.30;51.21;96655.91;4985886;28;20518;-92
2021/06/11 08:44:13;;;;;;;13.33;11.60;;;;;;;26.66;53.68;96644.19;4996132;28;20477;-91
2021/06/11 08:46:40;;;;;;;12.50;10.50;;;;;;;27.14;53.58;96650.56;4991473;28;20465;-93
2021/06/11 08:49:06;;;;;;;12.93;11.73;;;;;;;26.73;54.60;96648.59;4987386;28;20910;-92
2021/06/11 08:51:34;;;;;;;13.53;11.90;;;;;;;26.71;54.10;96647.81;4985370;28;20446;-92
2021/06/11 08:54:01;;;;;;;13.27;11.37;;;;;;;26.38;55.54;96648.81;4984354;28;20497;-93
2021/06/11 08:56:27;;;;;;;13.17;11.87;;;;;;;26.33;55.91;96645.22;4985409;28;20515;-92
2021/06/11 08:58:54;;;;;;;13.07;11.97;;;;;;;26.31;56.20;96641.66;4984654;28;20548;-92
2021/06/11 09:01:20;;;;;;;12.63;11.50;;;;;;;26.28;55.82;96640.88;4984628;28;20502;-92
2021/06/11 09:03:48;;;;;;;12.50;11.37;;;;;;;25.80;56.82;96639.91;4984673;28;20505;-92
2021/06/11 09:06:17;;;;;;;16.00;11.83;;;;;;;25.70;57.58;96636.06;4983481;28;20904;-91
2021/06/11 09:08:52;;;;;;;13.37;12.07;;;;;;;25.74;56.89;96633.44;4983478;28;20450;-91
2021/06/11 09:11:23;;;;;;;13.20;11.90;;;;;;;25.86;56.64;96631.09;4983075;28;20438;-92
2021/06/11 09:13:54;;;;;;;14.77;13.13;;;;;;;25.72;56.96;96634.06;4985726;28;20446;-91
2021/06/11 09:16:22;;;;;;;15.30;13.70;;;;;;;25.09;58.60;96639.34;4986079;28;20469;-92
2021/06/11 09:18:51;;;;;;;14.50;13.00;;;;;;;25.20;58.90;96635.59;4986096;28;20493;-91
2021/06/11 09:21:36;;;;;;;14.10;12.67;;;;;;;25.48;57.97;96642.19;4990607;28;20442;-90
2021/06/11 09:24:14;;;;;;;14.53;13.23;;;;;;;25.32;56.84;96641.59;4990057;28;20953;-92
2021/06/11 09:26:44;;;;;;;14.87;12.20;;;;;;;25.46;57.44;96649.69;4991560;28;20474;-90
2021/06/11 09:29:21;;;;;;;13.73;12.53;;;;;;;25.68;56.06;96636.00;4987290;28;20446;-91
2021/06/11 09:32:28;;;;;;;14.60;12.80;;;;;;;25.73;53.76;96629.97;4986940;28;20466;-93
